createdAt,value
2022-11-16T00:01:34.347Z,6.07
2022-11-16T00:04:02.417Z,4.90
2022-11-16T00:06:29.626Z,5.90
2022-11-16T00:09:17.584Z,6.65
2022-11-16T00:11:44.969Z,6.13
2022-11-16T00:14:11.986Z,5.75
2022-11-16T00:16:39.337Z,6.85
2022-11-16T00:19:06.955Z,6.05
2022-11-16T00:21:34.410Z,6.60
2022-11-16T00:24:01.828Z,7.35
2022-11-16T00:26:28.923Z,5.72
2022-11-16T00:28:56.487Z,8.07
2022-11-16T00:31:24.358Z,5.00
2022-11-16T00:33:52.013Z,7.40
2022-11-16T00:36:19.184Z,5.20
2022-11-16T00:38:46.026Z,7.53
2022-11-16T00:41:12.980Z,5.45
2022-11-16T00:43:39.791Z,6.68
2022-11-16T00:46:06.670Z,6.10
2022-11-16T00:48:33.920Z,6.18
2022-11-16T00:51:00.975Z,6.40
2022-11-16T00:53:27.946Z,4.80
2022-11-16T00:55:54.780Z,6.63
2022-11-16T00:58:22.093Z,4.93
2022-11-16T01:00:48.919Z,7.57
2022-11-16T01:03:15.765Z,6.32
2022-11-16T01:05:42.543Z,6.63
2022-11-16T01:08:09.645Z,9.32
2022-11-16T01:10:39.964Z,6.45
2022-11-16T01:13:06.857Z,9.82
2022-11-16T01:15:33.891Z,6.38
2022-11-16T01:18:00.691Z,7.03
2022-11-16T01:20:29.523Z,5.53
2022-11-16T01:22:56.609Z,5.10
2022-11-16T01:25:23.409Z,5.15
2022-11-16T01:27:50.284Z,4.80
2022-11-16T01:30:17.196Z,4.72
2022-11-16T01:32:44.136Z,5.80
2022-11-16T01:35:15.815Z,4.38
2022-11-16T01:37:42.840Z,5.82
2022-11-16T01:40:11.183Z,6.45
2022-11-16T01:42:38.058Z,7.88
2022-11-16T01:45:27.992Z,5.60
2022-11-16T01:47:55.361Z,4.18
2022-11-16T01:50:23.091Z,6.90
2022-11-16T01:52:57.052Z,7.82
2022-11-16T01:55:25.065Z,5.43
2022-11-16T01:57:51.946Z,4.28
2022-11-16T02:00:19.356Z,6.80
2022-11-16T02:02:46.144Z,5.40
2022-11-16T02:05:17.963Z,11.00
2022-11-16T02:08:14.832Z,4.32
2022-11-16T02:11:12.747Z,11.77
2022-11-16T02:13:42.497Z,8.05
2022-11-16T02:16:15.397Z,7.95
2022-11-16T02:19:14.324Z,5.97
2022-11-16T02:21:42.696Z,4.78
2022-11-16T02:25:03.947Z,5.65
2022-11-16T02:28:02.165Z,7.53
2022-11-16T02:30:29.206Z,6.95
2022-11-16T02:33:09.221Z,3.97
2022-11-16T02:35:45.201Z,5.50
2022-11-16T02:38:17.407Z,5.95
2022-11-16T02:40:48.184Z,6.70
2022-11-16T02:43:26.427Z,5.00
2022-11-16T02:45:57.142Z,6.53
2022-11-16T02:48:29.351Z,4.13
2022-11-16T02:50:56.864Z,5.50
2022-11-16T02:53:25.630Z,9.57
2022-11-16T02:55:52.665Z,8.32
2022-11-16T02:58:25.504Z,5.40
2022-11-16T03:01:06.147Z,5.55
2022-11-16T03:03:54.615Z,7.30
2022-11-16T03:06:29.002Z,6.97
2022-11-16T03:09:05.917Z,6.43
2022-11-16T03:11:54.690Z,5.35
2022-11-16T03:14:26.730Z,10.40
2022-11-16T03:16:57.615Z,5.45
2022-11-16T03:19:33.478Z,10.27
2022-11-16T03:22:07.265Z,9.57
2022-11-16T03:24:34.250Z,8.95
2022-11-16T03:27:07.394Z,7.18
2022-11-16T03:30:00.344Z,6.13
2022-11-16T03:32:39.815Z,8.43
2022-11-16T03:35:25.156Z,7.13
2022-11-16T03:37:56.277Z,4.82
2022-11-16T03:40:25.394Z,5.88
2022-11-16T03:42:52.694Z,7.40
2022-11-16T03:45:20.359Z,8.82
2022-11-16T03:47:47.294Z,5.82
2022-11-16T03:50:15.138Z,10.15
2022-11-16T03:52:41.984Z,6.68
2022-11-16T03:55:09.236Z,7.80
2022-11-16T03:57:35.990Z,11.40
2022-11-16T04:00:03.742Z,11.80
2022-11-16T04:02:30.551Z,9.15
2022-11-16T04:05:15.959Z,12.30
2022-11-16T04:08:02.321Z,10.48
2022-11-16T04:10:48.119Z,8.35
2022-11-16T04:13:34.946Z,8.65
2022-11-16T04:16:20.326Z,7.57
2022-11-16T04:19:07.367Z,9.23
2022-11-16T04:22:14.879Z,6.70
2022-11-16T04:24:46.632Z,12.38
2022-11-16T04:27:34.146Z,11.70
2022-11-16T04:30:02.682Z,10.05
2022-11-16T04:32:48.142Z,9.38
2022-11-16T04:35:33.466Z,8.32
2022-11-16T04:38:00.280Z,10.07
2022-11-16T04:40:30.465Z,8.30
2022-11-16T04:43:03.365Z,10.77
2022-11-16T04:45:49.262Z,12.15
2022-11-16T04:48:18.397Z,15.35
2022-11-16T04:50:47.235Z,10.60
2022-11-16T04:53:14.949Z,10.32
2022-11-16T04:55:41.724Z,8.60
2022-11-16T04:58:08.779Z,10.48
2022-11-16T05:00:35.589Z,7.72
2022-11-16T05:03:04.560Z,9.35
2022-11-16T05:05:31.391Z,9.93
2022-11-16T05:07:58.153Z,8.60
2022-11-16T05:10:24.979Z,10.85
2022-11-16T05:12:51.751Z,11.65
2022-11-16T05:15:19.780Z,8.95
2022-11-16T05:17:47.457Z,10.90
2022-11-16T05:20:33.066Z,8.30
2022-11-16T05:23:00.009Z,9.63
2022-11-16T05:25:28.553Z,9.65
2022-11-16T05:27:58.183Z,9.00
2022-11-16T05:30:24.993Z,10.65
2022-11-16T05:32:51.807Z,8.13
2022-11-16T05:35:18.603Z,9.82
2022-11-16T05:37:45.466Z,14.13
2022-11-16T05:40:12.598Z,9.23
2022-11-16T05:42:39.411Z,12.40
2022-11-16T05:45:06.788Z,9.25
2022-11-16T05:47:33.543Z,12.43
2022-11-16T05:50:00.326Z,9.68
2022-11-16T05:52:27.263Z,11.82
2022-11-16T05:54:54.042Z,10.27
2022-11-16T05:57:20.893Z,12.95
2022-11-16T05:59:47.699Z,9.85
2022-11-16T06:02:14.541Z,11.35
2022-11-16T06:04:41.303Z,10.23
2022-11-16T06:07:08.179Z,11.65
2022-11-16T06:09:35.219Z,10.38
2022-11-16T06:12:02.037Z,15.60
2022-11-16T06:14:28.990Z,10.05
2022-11-16T06:16:55.735Z,9.90
2022-11-16T06:19:22.591Z,12.15
2022-11-16T06:21:49.436Z,12.50
2022-11-16T06:24:16.224Z,13.75
2022-11-16T06:26:43.069Z,12.05
2022-11-16T06:29:09.941Z,13.73
2022-11-16T06:31:36.717Z,14.02
2022-11-16T06:34:03.601Z,14.25
2022-11-16T06:36:30.469Z,11.02
2022-11-16T06:39:00.987Z,11.00
2022-11-16T06:41:27.889Z,16.60
2022-11-16T06:43:54.922Z,11.55
2022-11-16T06:46:21.964Z,14.57
2022-11-16T06:48:48.787Z,11.77
2022-11-16T06:51:15.654Z,11.85
2022-11-16T06:53:42.499Z,14.82
2022-11-16T06:56:13.148Z,14.18
2022-11-16T06:58:42.805Z,12.65
2022-11-16T07:01:11.698Z,12.90
2022-11-16T07:03:38.836Z,11.98
2022-11-16T07:06:10.490Z,15.15
2022-11-16T07:08:37.854Z,10.95
2022-11-16T07:11:09.382Z,12.30
2022-11-16T07:13:37.517Z,12.68
2022-11-16T07:16:06.195Z,10.55
2022-11-16T07:18:35.432Z,12.35
2022-11-16T07:21:20.691Z,11.80
2022-11-16T07:23:47.446Z,10.23
2022-11-16T07:26:14.246Z,11.07
2022-11-16T07:28:47.728Z,13.10
2022-11-16T07:31:16.193Z,11.45
2022-11-16T07:33:43.393Z,12.25
2022-11-16T07:36:13.485Z,14.02
2022-11-16T07:38:40.914Z,10.32
2022-11-16T07:41:10.996Z,11.55
2022-11-16T07:43:37.978Z,11.75
2022-11-16T07:46:46.135Z,12.90
2022-11-16T07:48:58.473Z,20.13
2022-11-16T07:51:25.592Z,11.50
2022-11-16T07:53:55.994Z,14.43
2022-11-16T07:56:23.062Z,13.50
2022-11-16T07:58:50.426Z,11.68
2022-11-16T08:01:18.545Z,12.63
2022-11-16T08:03:46.705Z,9.02
2022-11-16T08:06:13.532Z,13.98
2022-11-16T08:08:40.687Z,12.15
2022-11-16T08:11:09.602Z,11.70
2022-11-16T08:13:38.484Z,13.60
2022-11-16T08:16:13.963Z,11.52
2022-11-16T08:18:41.793Z,11.88
2022-11-16T08:21:11.357Z,12.93
2022-11-16T08:23:40.204Z,14.52
2022-11-16T08:26:09.471Z,13.63
2022-11-16T08:28:37.224Z,13.23
2022-11-16T08:31:12.690Z,9.68
2022-11-16T08:33:39.628Z,9.82
2022-11-16T08:36:12.664Z,10.55
2022-11-16T08:41:08.045Z,10.10
2022-11-16T08:43:35.902Z,13.23
2022-11-16T08:46:03.400Z,13.60
2022-11-16T08:48:30.706Z,9.70
2022-11-16T08:51:18.641Z,13.20
2022-11-16T08:53:48.105Z,9.52
2022-11-16T08:56:16.424Z,14.52
2022-11-16T08:58:47.403Z,15.57
2022-11-16T09:01:17.584Z,14.20
2022-11-16T09:03:45.192Z,13.73
2022-11-16T09:06:12.996Z,11.10
2022-11-16T09:08:41.936Z,13.13
2022-11-16T09:11:17.882Z,13.73
2022-11-16T09:13:46.340Z,11.68
2022-11-16T09:16:16.609Z,13.85
2022-11-16T09:18:46.887Z,10.50
2022-11-16T09:21:25.022Z,11.48
2022-11-16T09:23:53.724Z,15.30
2022-11-16T09:26:23.189Z,11.30
2022-11-16T09:28:58.440Z,10.30
2022-11-16T09:31:29.429Z,11.13
2022-11-16T09:33:58.884Z,11.23
2022-11-16T09:36:27.738Z,10.48
2022-11-16T09:39:23.651Z,8.13
2022-11-16T09:41:47.815Z,15.13
2022-11-16T09:44:29.569Z,10.30
2022-11-16T09:46:59.028Z,15.40
2022-11-16T09:49:31.089Z,9.00
2022-11-16T09:52:05.384Z,10.27
2022-11-16T09:54:37.903Z,8.10
2022-11-16T09:57:12.445Z,9.13
2022-11-16T09:59:49.876Z,7.47
2022-11-16T10:02:34.799Z,9.05
2022-11-16T10:07:38.709Z,8.93
2022-11-16T10:10:06.334Z,10.43
2022-11-16T10:12:43.845Z,7.03
2022-11-16T10:16:00.294Z,9.95
2022-11-16T10:18:45.962Z,9.02
2022-11-16T10:21:16.780Z,12.52
2022-11-16T10:24:04.041Z,10.32
2022-11-16T10:27:21.977Z,10.85
2022-11-16T10:30:02.058Z,9.70
2022-11-16T10:32:36.914Z,6.25
2022-11-16T10:35:13.065Z,10.50
2022-11-16T10:37:45.408Z,10.07
2022-11-16T10:40:20.444Z,7.70
2022-11-16T10:43:00.187Z,5.18
2022-11-16T10:46:05.720Z,5.90
2022-11-16T10:51:09.814Z,6.10
2022-11-16T10:53:42.403Z,4.68
2022-11-16T10:56:32.055Z,4.82
2022-11-16T10:59:00.076Z,4.25
2022-11-16T11:01:57.716Z,5.80
2022-11-16T11:04:31.671Z,8.23
2022-11-16T11:07:00.979Z,5.60
2022-11-16T11:09:33.665Z,5.82
2022-11-16T11:12:34.039Z,5.40
2022-11-16T11:15:25.833Z,3.55
2022-11-16T11:18:12.168Z,3.45
2022-11-16T11:20:44.729Z,10.98
2022-11-16T11:23:21.783Z,5.35
2022-11-16T11:26:00.382Z,8.82
2022-11-16T11:28:53.751Z,7.60
2022-11-16T11:31:27.181Z,5.13
2022-11-16T11:33:58.234Z,6.22
2022-11-16T11:36:40.521Z,1.58
2022-11-16T11:39:13.533Z,2.10
2022-11-16T11:41:45.286Z,2.92
2022-11-16T11:44:17.635Z,3.63
2022-11-16T11:47:42.434Z,5.38
2022-11-16T11:49:50.132Z,3.00
2022-11-16T11:52:21.821Z,8.07
2022-11-16T11:54:50.906Z,8.27
2022-11-16T11:57:23.292Z,1.55
2022-11-16T11:59:52.742Z,8.00
2022-11-16T12:02:49.065Z,6.18
2022-11-16T12:05:21.670Z,3.83
2022-11-16T12:08:00.441Z,3.60
2022-11-16T12:10:58.010Z,4.78
2022-11-16T12:13:48.002Z,6.35
2022-11-16T12:16:20.814Z,4.13
2022-11-16T12:19:09.620Z,4.28
2022-11-16T12:22:18.017Z,2.72
2022-11-16T12:25:17.180Z,8.20
2022-11-16T12:28:35.290Z,3.42
2022-11-16T12:31:36.513Z,3.72
2022-11-16T12:34:12.062Z,4.97
2022-11-16T12:37:00.004Z,3.88
2022-11-16T12:39:54.653Z,8.27
2022-11-16T12:42:32.804Z,4.53
2022-11-16T12:44:59.513Z,8.75
2022-11-16T12:48:04.046Z,3.60
2022-11-16T12:50:43.041Z,5.70
2022-11-16T12:53:26.806Z,7.75
2022-11-16T12:56:19.554Z,14.55
2022-11-16T12:59:04.479Z,5.20
2022-11-16T13:01:41.208Z,10.13
2022-11-16T13:04:31.776Z,6.60
2022-11-16T13:07:11.176Z,5.90
2022-11-16T13:09:43.933Z,2.92
2022-11-16T13:12:17.159Z,3.08
2022-11-16T13:14:47.834Z,3.30
2022-11-16T13:17:38.489Z,0.63
2022-11-16T13:20:27.362Z,2.15
2022-11-16T13:23:06.117Z,6.75
2022-11-16T13:25:58.310Z,5.53
2022-11-16T13:28:40.332Z,5.80
2022-11-16T13:31:31.694Z,4.07
2022-11-16T13:34:15.952Z,4.75
2022-11-16T13:36:45.266Z,6.63
2022-11-16T13:39:22.348Z,6.68
2022-11-16T13:42:05.078Z,5.03
2022-11-16T13:44:32.533Z,8.02
2022-11-16T13:47:28.894Z,11.60
2022-11-16T13:49:59.528Z,4.20
2022-11-16T13:54:10.746Z,12.50
2022-11-16T13:55:46.483Z,11.05
2022-11-16T13:58:21.090Z,2.42
2022-11-16T14:01:18.092Z,3.72
2022-11-16T14:03:51.659Z,5.25
2022-11-16T14:06:24.447Z,7.50
2022-11-16T14:08:58.868Z,5.47
2022-11-16T14:11:39.648Z,15.07
2022-11-16T14:14:33.758Z,10.63
2022-11-16T14:17:00.585Z,2.58
2022-11-16T14:19:49.196Z,8.35
2022-11-16T14:23:06.951Z,2.92
2022-11-16T14:25:49.139Z,7.53
2022-11-16T14:28:25.182Z,5.93
2022-11-16T14:31:24.758Z,3.45
2022-11-16T14:33:54.377Z,5.90
2022-11-16T14:36:43.151Z,8.20
2022-11-16T14:39:25.351Z,4.20
2022-11-16T14:41:53.204Z,2.90
2022-11-16T14:44:22.706Z,6.80
2022-11-16T14:46:49.525Z,8.30
2022-11-16T14:49:20.347Z,1.90
2022-11-16T14:51:54.442Z,5.07
2022-11-16T14:54:52.440Z,10.15
2022-11-16T14:57:21.715Z,8.50
2022-11-16T14:59:49.185Z,4.88
2022-11-16T15:02:26.372Z,4.18
2022-11-16T15:04:53.880Z,4.20
2022-11-16T15:07:24.035Z,6.97
2022-11-16T15:09:54.438Z,4.88
2022-11-16T15:12:43.998Z,7.45
2022-11-16T15:15:10.764Z,7.38
2022-11-16T15:17:40.582Z,3.83
2022-11-16T15:20:20.630Z,4.30
2022-11-16T15:22:51.525Z,12.60
2022-11-16T15:25:29.610Z,3.75
2022-11-16T15:27:58.649Z,5.22
2022-11-16T15:30:29.378Z,6.82
2022-11-16T15:32:56.749Z,10.68
2022-11-16T15:35:31.310Z,7.35
2022-11-16T15:38:13.814Z,8.85
2022-11-16T15:40:53.991Z,5.63
2022-11-16T15:43:24.103Z,2.58
2022-11-16T15:45:51.402Z,3.63
2022-11-16T15:48:23.957Z,10.73
2022-11-16T15:51:17.038Z,9.43
2022-11-16T15:53:46.504Z,7.18
2022-11-16T15:56:26.417Z,5.05
2022-11-16T15:58:54.831Z,3.85
2022-11-16T16:01:23.065Z,5.70
2022-11-16T16:03:55.954Z,1.80
2022-11-16T16:06:55.167Z,3.67
2022-11-16T16:09:38.764Z,3.03
2022-11-16T16:12:21.896Z,9.38
2022-11-16T16:14:50.465Z,4.30
2022-11-16T16:17:25.898Z,13.25
2022-11-16T16:20:05.145Z,3.65
2022-11-16T16:22:34.446Z,10.32
2022-11-16T16:25:02.024Z,5.90
2022-11-16T16:27:30.835Z,1.55
2022-11-16T16:30:02.594Z,4.45
2022-11-16T16:32:31.410Z,4.03
2022-11-16T16:35:00.551Z,4.88
2022-11-16T16:37:31.891Z,7.68
2022-11-16T16:39:59.720Z,5.85
2022-11-16T16:42:26.627Z,3.58
2022-11-16T16:44:53.854Z,6.75
2022-11-16T16:47:21.005Z,7.57
2022-11-16T16:49:48.740Z,5.53
2022-11-16T16:52:16.058Z,9.85
2022-11-16T16:54:44.962Z,13.43
2022-11-16T16:57:16.505Z,14.57
2022-11-16T16:59:48.346Z,6.35
2022-11-16T17:02:16.336Z,7.75
2022-11-16T17:04:49.730Z,6.90
2022-11-16T17:07:16.832Z,5.03
2022-11-16T17:09:43.871Z,4.38
2022-11-16T17:12:11.065Z,10.70
2022-11-16T17:14:38.248Z,4.32
2022-11-16T17:17:05.483Z,6.75
2022-11-16T17:19:32.248Z,6.95
2022-11-16T17:21:59.986Z,5.50
2022-11-16T17:24:26.931Z,7.00
2022-11-16T17:26:53.876Z,6.70
2022-11-16T17:29:20.656Z,10.63
2022-11-16T17:31:47.737Z,6.38
2022-11-16T17:34:14.770Z,5.53
2022-11-16T17:36:42.576Z,3.20
2022-11-16T17:39:09.494Z,5.10
2022-11-16T17:41:36.326Z,7.18
2022-11-16T17:44:03.967Z,6.15
2022-11-16T17:46:30.734Z,10.20
2022-11-16T17:48:57.554Z,5.20
2022-11-16T17:51:25.861Z,5.22
2022-11-16T17:53:52.910Z,7.15
2022-11-16T17:56:28.629Z,12.60
2022-11-16T17:58:58.362Z,6.47
2022-11-16T18:01:27.081Z,12.95
2022-11-16T18:03:54.383Z,15.55
2022-11-16T18:06:23.454Z,9.88
2022-11-16T18:08:50.302Z,18.35
2022-11-16T18:11:25.242Z,17.55
2022-11-16T18:13:54.002Z,14.57
2022-11-16T18:16:22.984Z,20.83
2022-11-16T18:18:55.894Z,21.92
2022-11-16T18:21:22.703Z,20.98
2022-11-16T18:23:49.560Z,22.73
2022-11-16T18:26:20.502Z,16.88
2022-11-16T18:28:51.924Z,20.95
2022-11-16T18:31:21.657Z,23.98
2022-11-16T18:33:49.313Z,32.45
2022-11-16T18:36:17.358Z,23.35
2022-11-16T18:38:44.434Z,22.10
2022-11-16T18:41:16.785Z,25.95
2022-11-16T18:43:51.509Z,28.67
2022-11-16T18:46:19.843Z,31.02
2022-11-16T18:48:46.900Z,28.05
2022-11-16T18:51:15.562Z,35.60
2022-11-16T18:53:42.941Z,28.65
2022-11-16T18:56:11.838Z,34.53
2022-11-16T18:58:54.608Z,31.10
2022-11-16T19:01:26.360Z,31.30
2022-11-16T19:03:54.326Z,30.20
2022-11-16T19:06:22.488Z,30.88
2022-11-16T19:08:56.539Z,29.90
2022-11-16T19:11:24.093Z,38.33
2022-11-16T19:13:56.976Z,32.80
2022-11-16T19:16:24.882Z,25.25
2022-11-16T19:18:52.116Z,24.60
2022-11-16T19:21:19.330Z,30.35
2022-11-16T19:23:48.470Z,46.67
2022-11-16T19:26:17.974Z,38.97
2022-11-16T19:28:47.056Z,44.42
2022-11-16T19:31:35.625Z,42.40
2022-11-16T19:34:05.578Z,29.50
2022-11-16T19:36:33.922Z,33.10
2022-11-16T19:39:00.775Z,29.23
2022-11-16T19:41:28.417Z,35.50
2022-11-16T19:43:59.899Z,31.48
2022-11-16T19:46:28.782Z,25.30
2022-11-16T19:48:56.659Z,28.95
2022-11-16T19:51:25.952Z,32.58
2022-11-16T19:53:53.247Z,27.17
2022-11-16T19:56:21.898Z,28.27
2022-11-16T19:58:48.978Z,27.90
2022-11-16T20:01:27.562Z,27.75
2022-11-16T20:03:56.396Z,28.20
2022-11-16T20:06:26.520Z,26.80
2022-11-16T20:08:55.984Z,23.27
2022-11-16T20:11:27.897Z,24.23
2022-11-16T20:13:56.510Z,23.48
2022-11-16T20:16:26.069Z,22.52
2022-11-16T20:18:53.799Z,27.80
2022-11-16T20:21:34.959Z,23.23
2022-11-16T20:24:06.825Z,26.95
2022-11-16T20:26:35.333Z,25.13
2022-11-16T20:29:02.455Z,21.42
2022-11-16T20:31:31.439Z,24.33
2022-11-16T20:34:03.248Z,24.05
2022-11-16T20:36:32.342Z,26.42
2022-11-16T20:39:00.825Z,25.25
2022-11-16T20:41:29.916Z,17.95
2022-11-16T20:44:01.537Z,21.98
2022-11-16T20:46:33.381Z,18.63
2022-11-16T20:49:03.422Z,19.10
2022-11-16T20:51:30.463Z,24.17
2022-11-16T20:53:57.705Z,22.58
2022-11-16T20:56:24.628Z,22.85
2022-11-16T20:58:51.414Z,25.58
2022-11-16T21:01:28.988Z,26.30
2022-11-16T21:03:57.335Z,25.50
2022-11-16T21:06:24.481Z,24.08
2022-11-16T21:08:52.016Z,27.13
2022-11-16T21:11:22.989Z,22.15
2022-11-16T21:14:08.271Z,22.83
2022-11-16T21:16:36.011Z,21.98
2022-11-16T21:19:03.659Z,20.33
2022-11-16T21:21:30.838Z,24.27
2022-11-16T21:23:58.077Z,26.17
2022-11-16T21:26:27.730Z,19.55
2022-11-16T21:28:55.744Z,23.52
2022-11-16T21:31:29.630Z,22.50
2022-11-16T21:33:57.458Z,26.27
2022-11-16T21:36:26.614Z,23.48
2022-11-16T21:38:53.810Z,22.30
2022-11-16T21:41:22.542Z,25.48
2022-11-16T21:43:49.678Z,24.90
2022-11-16T21:46:22.146Z,22.75
2022-11-16T21:48:51.310Z,20.80
2022-11-16T21:51:20.280Z,28.65
2022-11-16T21:53:47.590Z,21.65
2022-11-16T21:56:16.843Z,21.27
2022-11-16T21:58:44.150Z,22.13
2022-11-16T22:01:13.370Z,19.40
2022-11-16T22:03:40.379Z,22.35
2022-11-16T22:06:30.034Z,18.40
2022-11-16T22:08:56.849Z,21.30
2022-11-16T22:11:23.662Z,30.98
2022-11-16T22:13:51.018Z,20.27
2022-11-16T22:16:21.363Z,18.70
2022-11-16T22:18:48.204Z,25.15
2022-11-16T22:21:14.976Z,16.25
2022-11-16T22:23:42.146Z,24.17
2022-11-16T22:26:11.312Z,17.08
2022-11-16T22:28:39.050Z,21.25
2022-11-16T22:31:10.986Z,17.00
2022-11-16T22:33:38.825Z,22.83
2022-11-16T22:36:09.264Z,23.67
2022-11-16T22:38:36.679Z,21.50
2022-11-16T22:41:03.682Z,22.38
2022-11-16T22:43:31.236Z,23.20
2022-11-16T22:46:04.582Z,20.02
2022-11-16T22:48:37.850Z,20.73
2022-11-16T22:51:16.562Z,19.38
2022-11-16T22:53:43.562Z,18.88
2022-11-16T22:56:10.696Z,19.30
2022-11-16T22:58:39.130Z,23.45
2022-11-16T23:01:07.828Z,23.02
2022-11-16T23:03:35.586Z,25.70
2022-11-16T23:06:03.740Z,20.15
2022-11-16T23:08:30.733Z,17.65
2022-11-16T23:11:23.184Z,24.80
2022-11-16T23:14:09.559Z,22.85
2022-11-16T23:16:38.259Z,20.08
2022-11-16T23:19:26.221Z,19.58
2022-11-16T23:22:11.629Z,22.73
2022-11-16T23:24:56.874Z,22.42
2022-11-16T23:27:30.601Z,16.35
2022-11-16T23:30:03.120Z,21.58
2022-11-16T23:32:31.245Z,22.10
2022-11-16T23:34:58.303Z,21.08
2022-11-16T23:37:25.110Z,22.65
2022-11-16T23:39:51.883Z,18.67
2022-11-16T23:42:37.003Z,18.98
2022-11-16T23:45:04.262Z,19.13
2022-11-16T23:47:31.043Z,12.82
2022-11-16T23:49:57.808Z,28.20
2022-11-16T23:52:24.604Z,24.80
2022-11-16T23:54:51.397Z,16.42
2022-11-16T23:57:18.241Z,16.52
2022-11-16T23:59:45.015Z,18.58
